sensor_id;sensor_type;location;lat;lon;timestamp;P1;durP1;ratioP1;P2;durP2;ratioP2
78404;SDS011;67689;43.592;1.418;2023-04-01T00:00:48;33.50;;;4.75;;
78404;SDS011;67689;43.592;1.418;2023-04-01T00:03:14;29.95;;;4.75;;
78404;SDS011;67689;43.592;1.418;2023-04-01T00:05:40;27.98;;;4.55;;
78404;SDS011;67689;43.592;1.418;2023-04-01T00:08:05;27.15;;;4.55;;
78404;SDS011;67689;43.592;1.418;2023-04-01T00:10:30;33.13;;;4.68;;
78404;SDS011;67689;43.592;1.418;2023-04-01T00:12:56;25.13;;;4.53;;
78404;SDS011;67689;43.592;1.418;2023-04-01T00:15:21;26.23;;;4.60;;
78404;SDS011;67689;43.592;1.418;2023-04-01T00:17:47;29.92;;;4.18;;
78404;SDS011;67689;43.592;1.418;2023-04-01T00:20:12;34.08;;;4.65;;
78404;SDS011;67689;43.592;1.418;2023-04-01T00:22:39;34.13;;;5.05;;
78404;SDS011;67689;43.592;1.418;2023-04-01T00:25:05;29.23;;;4.82;;
78404;SDS011;67689;43.592;1.418;2023-04-01T00:27:31;33.65;;;5.15;;
78404;SDS011;67689;43.592;1.418;2023-04-01T00:29:56;37.28;;;4.15;;
78404;SDS011;67689;43.592;1.418;2023-04-01T00:32:22;24.92;;;4.35;;
78404;SDS011;67689;43.592;1.418;2023-04-01T00:34:49;28.05;;;4.75;;
78404;SDS011;67689;43.592;1.418;2023-04-01T00:37:16;31.23;;;4.63;;
78404;SDS011;67689;43.592;1.418;2023-04-01T00:39:42;31.42;;;5.65;;
78404;SDS011;67689;43.592;1.418;2023-04-01T00:42:08;32.40;;;4.65;;
78404;SDS011;67689;43.592;1.418;2023-04-01T00:44:34;33.30;;;5.15;;
78404;SDS011;67689;43.592;1.418;2023-04-01T00:47:00;29.85;;;4.43;;
78404;SDS011;67689;43.592;1.418;2023-04-01T00:49:29;32.80;;;4.53;;
78404;SDS011;67689;43.592;1.418;2023-04-01T00:51:57;30.95;;;5.15;;
78404;SDS011;67689;43.592;1.418;2023-04-01T00:54:24;33.40;;;4.55;;
78404;SDS011;67689;43.592;1.418;2023-04-01T00:56:50;34.25;;;6.50;;
78404;SDS011;67689;43.592;1.418;2023-04-01T00:59:23;29.63;;;4.70;;
78404;SDS011;67689;43.592;1.418;2023-04-01T01:01:49;28.02;;;4.72;;
78404;SDS011;67689;43.592;1.418;2023-04-01T01:04:28;33.70;;;4.88;;
78404;SDS011;67689;43.592;1.418;2023-04-01T01:12:24;26.67;;;4.07;;
78404;SDS011;67689;43.592;1.418;2023-04-01T01:31:56;29.85;;;5.15;;
78404;SDS011;67689;43.592;1.418;2023-04-01T01:36:56;34.38;;;4.60;;
78404;SDS011;67689;43.592;1.418;2023-04-01T01:39:26;31.20;;;4.82;;
78404;SDS011;67689;43.592;1.418;2023-04-01T01:41:55;31.02;;;4.63;;
78404;SDS011;67689;43.592;1.418;2023-04-01T01:44:22;27.35;;;4.25;;
78404;SDS011;67689;43.592;1.418;2023-04-01T01:46:49;31.20;;;4.95;;
78404;SDS011;67689;43.592;1.418;2023-04-01T01:49:15;35.70;;;5.00;;
78404;SDS011;67689;43.592;1.418;2023-04-01T01:51:42;32.45;;;4.75;;
78404;SDS011;67689;43.592;1.418;2023-04-01T01:54:11;25.20;;;4.43;;
78404;SDS011;67689;43.592;1.418;2023-04-01T01:56:41;31.10;;;4.20;;
78404;SDS011;67689;43.592;1.418;2023-04-01T01:59:08;36.17;;;5.32;;
78404;SDS011;67689;43.592;1.418;2023-04-01T02:01:37;33.50;;;4.72;;
78404;SDS011;67689;43.592;1.418;2023-04-01T02:04:05;29.80;;;4.60;;
78404;SDS011;67689;43.592;1.418;2023-04-01T02:06:32;33.38;;;4.63;;
78404;SDS011;67689;43.592;1.418;2023-04-01T02:09:00;32.40;;;4.70;;
78404;SDS011;67689;43.592;1.418;2023-04-01T02:11:41;32.03;;;5.15;;
78404;SDS011;67689;43.592;1.418;2023-04-01T02:14:22;36.47;;;5.18;;
78404;SDS011;67689;43.592;1.418;2023-04-01T02:16:51;29.83;;;3.70;;
78404;SDS011;67689;43.592;1.418;2023-04-01T02:19:20;28.98;;;4.15;;
78404;SDS011;67689;43.592;1.418;2023-04-01T02:21:52;29.20;;;4.28;;
78404;SDS011;67689;43.592;1.418;2023-04-01T02:24:21;29.65;;;4.30;;
78404;SDS011;67689;43.592;1.418;2023-04-01T02:26:49;31.15;;;4.72;;
78404;SDS011;67689;43.592;1.418;2023-04-01T02:29:16;26.30;;;4.15;;
78404;SDS011;67689;43.592;1.418;2023-04-01T02:31:43;33.47;;;4.70;;
78404;SDS011;67689;43.592;1.418;2023-04-01T02:34:09;26.00;;;4.80;;
78404;SDS011;67689;43.592;1.418;2023-04-01T02:36:35;27.42;;;5.00;;
78404;SDS011;67689;43.592;1.418;2023-04-01T02:39:01;31.90;;;4.63;;
78404;SDS011;67689;43.592;1.418;2023-04-01T02:41:29;27.40;;;4.50;;
78404;SDS011;67689;43.592;1.418;2023-04-01T02:43:54;31.42;;;4.80;;
78404;SDS011;67689;43.592;1.418;2023-04-01T02:46:22;36.05;;;4.68;;
78404;SDS011;67689;43.592;1.418;2023-04-01T02:48:47;28.98;;;4.75;;
78404;SDS011;67689;43.592;1.418;2023-04-01T02:51:13;32.45;;;4.82;;
78404;SDS011;67689;43.592;1.418;2023-04-01T02:53:38;35.78;;;5.10;;
78404;SDS011;67689;43.592;1.418;2023-04-01T02:56:03;33.30;;;4.32;;
78404;SDS011;67689;43.592;1.418;2023-04-01T02:58:29;26.05;;;4.10;;
78404;SDS011;67689;43.592;1.418;2023-04-01T03:00:54;33.60;;;5.78;;
78404;SDS011;67689;43.592;1.418;2023-04-01T03:03:20;30.88;;;4.80;;
78404;SDS011;67689;43.592;1.418;2023-04-01T03:05:45;32.90;;;4.95;;
78404;SDS011;67689;43.592;1.418;2023-04-01T03:08:10;27.58;;;4.18;;
78404;SDS011;67689;43.592;1.418;2023-04-01T03:10:36;35.58;;;4.72;;
78404;SDS011;67689;43.592;1.418;2023-04-01T03:13:02;26.67;;;4.20;;
78404;SDS011;67689;43.592;1.418;2023-04-01T03:15:28;25.58;;;4.22;;
78404;SDS011;67689;43.592;1.418;2023-04-01T03:17:53;31.75;;;4.63;;
78404;SDS011;67689;43.592;1.418;2023-04-01T03:20:18;35.60;;;5.35;;
78404;SDS011;67689;43.592;1.418;2023-04-01T03:22:45;34.60;;;4.95;;
78404;SDS011;67689;43.592;1.418;2023-04-01T03:25:11;30.35;;;5.18;;
78404;SDS011;67689;43.592;1.418;2023-04-01T03:27:37;29.60;;;4.82;;
78404;SDS011;67689;43.592;1.418;2023-04-01T03:30:03;37.20;;;4.30;;
78404;SDS011;67689;43.592;1.418;2023-04-01T03:32:29;27.58;;;5.15;;
78404;SDS011;67689;43.592;1.418;2023-04-01T03:34:55;30.67;;;4.75;;
78404;SDS011;67689;43.592;1.418;2023-04-01T03:37:20;37.47;;;5.07;;
78404;SDS011;67689;43.592;1.418;2023-04-01T03:39:46;35.35;;;4.80;;
78404;SDS011;67689;43.592;1.418;2023-04-01T03:42:11;28.92;;;5.43;;
78404;SDS011;67689;43.592;1.418;2023-04-01T03:44:37;32.72;;;5.10;;
78404;SDS011;67689;43.592;1.418;2023-04-01T03:47:02;34.42;;;4.88;;
78404;SDS011;67689;43.592;1.418;2023-04-01T03:49:28;34.55;;;5.60;;
78404;SDS011;67689;43.592;1.418;2023-04-01T03:51:53;38.92;;;5.00;;
78404;SDS011;67689;43.592;1.418;2023-04-01T03:54:18;28.35;;;4.75;;
78404;SDS011;67689;43.592;1.418;2023-04-01T03:56:45;33.42;;;4.75;;
78404;SDS011;67689;43.592;1.418;2023-04-01T03:59:10;32.95;;;5.82;;
78404;SDS011;67689;43.592;1.418;2023-04-01T04:01:36;36.60;;;5.60;;
78404;SDS011;67689;43.592;1.418;2023-04-01T04:04:01;34.50;;;5.15;;
78404;SDS011;67689;43.592;1.418;2023-04-01T04:06:27;34.10;;;4.72;;
78404;SDS011;67689;43.592;1.418;2023-04-01T04:08:53;33.10;;;4.93;;
78404;SDS011;67689;43.592;1.418;2023-04-01T04:11:18;25.20;;;4.22;;
78404;SDS011;67689;43.592;1.418;2023-04-01T04:13:45;29.15;;;4.57;;
78404;SDS011;67689;43.592;1.418;2023-04-01T04:16:10;36.00;;;5.13;;
78404;SDS011;67689;43.592;1.418;2023-04-01T04:18:36;30.73;;;5.28;;
78404;SDS011;67689;43.592;1.418;2023-04-01T04:21:02;28.20;;;4.22;;
78404;SDS011;67689;43.592;1.418;2023-04-01T04:23:27;31.50;;;4.72;;
78404;SDS011;67689;43.592;1.418;2023-04-01T04:25:58;33.05;;;4.40;;
78404;SDS011;67689;43.592;1.418;2023-04-01T04:28:25;32.90;;;5.05;;
78404;SDS011;67689;43.592;1.418;2023-04-01T04:30:51;30.02;;;4.43;;
78404;SDS011;67689;43.592;1.418;2023-04-01T04:33:17;29.35;;;4.45;;
78404;SDS011;67689;43.592;1.418;2023-04-01T04:35:43;32.38;;;3.95;;
78404;SDS011;67689;43.592;1.418;2023-04-01T04:38:08;26.77;;;4.18;;
78404;SDS011;67689;43.592;1.418;2023-04-01T04:40:35;33.90;;;4.03;;
78404;SDS011;67689;43.592;1.418;2023-04-01T04:43:02;27.92;;;4.20;;
78404;SDS011;67689;43.592;1.418;2023-04-01T04:45:27;28.35;;;4.35;;
78404;SDS011;67689;43.592;1.418;2023-04-01T04:47:53;27.20;;;4.63;;
78404;SDS011;67689;43.592;1.418;2023-04-01T04:50:18;36.28;;;5.03;;
78404;SDS011;67689;43.592;1.418;2023-04-01T04:52:44;34.90;;;4.20;;
78404;SDS011;67689;43.592;1.418;2023-04-01T04:55:09;31.35;;;4.45;;
78404;SDS011;67689;43.592;1.418;2023-04-01T04:57:34;27.45;;;4.10;;
78404;SDS011;67689;43.592;1.418;2023-04-01T05:00:00;28.20;;;4.15;;
78404;SDS011;67689;43.592;1.418;2023-04-01T05:02:25;29.10;;;5.07;;
78404;SDS011;67689;43.592;1.418;2023-04-01T05:04:50;29.25;;;4.22;;
78404;SDS011;67689;43.592;1.418;2023-04-01T05:07:16;30.92;;;4.63;;
78404;SDS011;67689;43.592;1.418;2023-04-01T05:09:41;31.80;;;4.15;;
78404;SDS011;67689;43.592;1.418;2023-04-01T05:12:07;31.15;;;4.30;;
78404;SDS011;67689;43.592;1.418;2023-04-01T05:14:32;27.77;;;4.95;;
78404;SDS011;67689;43.592;1.418;2023-04-01T05:16:57;34.05;;;5.07;;
78404;SDS011;67689;43.592;1.418;2023-04-01T05:19:23;33.58;;;4.70;;
78404;SDS011;67689;43.592;1.418;2023-04-01T05:21:48;25.33;;;4.20;;
78404;SDS011;67689;43.592;1.418;2023-04-01T05:24:14;29.65;;;4.25;;
78404;SDS011;67689;43.592;1.418;2023-04-01T05:26:39;36.15;;;4.70;;
78404;SDS011;67689;43.592;1.418;2023-04-01T05:29:04;34.05;;;4.57;;
78404;SDS011;67689;43.592;1.418;2023-04-01T05:31:30;26.80;;;4.28;;
78404;SDS011;67689;43.592;1.418;2023-04-01T05:33:56;30.77;;;4.55;;
78404;SDS011;67689;43.592;1.418;2023-04-01T05:36:21;31.05;;;4.45;;
78404;SDS011;67689;43.592;1.418;2023-04-01T05:38:47;31.23;;;4.57;;
78404;SDS011;67689;43.592;1.418;2023-04-01T05:41:13;28.60;;;4.80;;
78404;SDS011;67689;43.592;1.418;2023-04-01T05:43:39;32.72;;;4.43;;
78404;SDS011;67689;43.592;1.418;2023-04-01T05:46:05;26.77;;;4.75;;
78404;SDS011;67689;43.592;1.418;2023-04-01T05:48:33;27.05;;;3.85;;
78404;SDS011;67689;43.592;1.418;2023-04-01T05:51:00;35.35;;;4.68;;
78404;SDS011;67689;43.592;1.418;2023-04-01T05:53:25;31.90;;;4.65;;
78404;SDS011;67689;43.592;1.418;2023-04-01T05:55:51;28.65;;;4.20;;
78404;SDS011;67689;43.592;1.418;2023-04-01T05:58:16;25.70;;;4.47;;
78404;SDS011;67689;43.592;1.418;2023-04-01T06:00:41;32.45;;;4.82;;
78404;SDS011;67689;43.592;1.418;2023-04-01T06:03:07;29.30;;;4.90;;
78404;SDS011;67689;43.592;1.418;2023-04-01T06:05:39;37.42;;;5.13;;
78404;SDS011;67689;43.592;1.418;2023-04-01T06:08:14;26.75;;;4.20;;
78404;SDS011;67689;43.592;1.418;2023-04-01T06:33:15;27.83;;;5.13;;
78404;SDS011;67689;43.592;1.418;2023-04-01T06:38:47;30.55;;;4.22;;
78404;SDS011;67689;43.592;1.418;2023-04-01T06:41:21;31.38;;;4.10;;
78404;SDS011;67689;43.592;1.418;2023-04-01T06:44:27;27.75;;;4.38;;
78404;SDS011;67689;43.592;1.418;2023-04-01T06:47:18;28.05;;;4.20;;
78404;SDS011;67689;43.592;1.418;2023-04-01T06:50:19;32.00;;;4.03;;
78404;SDS011;67689;43.592;1.418;2023-04-01T06:55:59;24.92;;;3.90;;
78404;SDS011;67689;43.592;1.418;2023-04-01T06:58:51;31.42;;;4.38;;
78404;SDS011;67689;43.592;1.418;2023-04-01T07:01:19;30.80;;;4.38;;
78404;SDS011;67689;43.592;1.418;2023-04-01T07:03:50;32.30;;;4.22;;
78404;SDS011;67689;43.592;1.418;2023-04-01T07:06:32;31.60;;;4.57;;
78404;SDS011;67689;43.592;1.418;2023-04-01T07:09:02;30.77;;;4.43;;
78404;SDS011;67689;43.592;1.418;2023-04-01T07:11:41;30.88;;;4.22;;
78404;SDS011;67689;43.592;1.418;2023-04-01T07:16:54;31.52;;;3.88;;
78404;SDS011;67689;43.592;1.418;2023-04-01T07:25:07;38.35;;;4.78;;
78404;SDS011;67689;43.592;1.418;2023-04-01T07:27:37;27.30;;;4.00;;
78404;SDS011;67689;43.592;1.418;2023-04-01T07:30:04;34.22;;;5.05;;
78404;SDS011;67689;43.592;1.418;2023-04-01T07:35:28;30.52;;;4.43;;
78404;SDS011;67689;43.592;1.418;2023-04-01T07:40:49;27.45;;;3.80;;
78404;SDS011;67689;43.592;1.418;2023-04-01T07:51:38;31.17;;;4.70;;
78404;SDS011;67689;43.592;1.418;2023-04-01T07:54:22;31.27;;;3.95;;
78404;SDS011;67689;43.592;1.418;2023-04-01T07:57:05;29.40;;;4.78;;
78404;SDS011;67689;43.592;1.418;2023-04-01T07:59:45;31.65;;;4.82;;
78404;SDS011;67689;43.592;1.418;2023-04-01T08:05:08;18.90;;;3.70;;
78404;SDS011;67689;43.592;1.418;2023-04-01T08:10:23;26.73;;;4.45;;
78404;SDS011;67689;43.592;1.418;2023-04-01T08:21:01;31.60;;;4.47;;
78404;SDS011;67689;43.592;1.418;2023-04-01T08:23:38;30.60;;;4.43;;
78404;SDS011;67689;43.592;1.418;2023-04-01T08:26:10;32.67;;;4.82;;
78404;SDS011;67689;43.592;1.418;2023-04-01T08:31:36;31.20;;;3.92;;
78404;SDS011;67689;43.592;1.418;2023-04-01T08:34:05;29.15;;;3.70;;
78404;SDS011;67689;43.592;1.418;2023-04-01T08:36:36;28.95;;;4.10;;
78404;SDS011;67689;43.592;1.418;2023-04-01T08:39:07;28.98;;;4.80;;
78404;SDS011;67689;43.592;1.418;2023-04-01T09:23:35;16.58;;;2.58;;
78404;SDS011;67689;43.592;1.418;2023-04-01T09:29:24;15.00;;;2.20;;
78404;SDS011;67689;43.592;1.418;2023-04-01T09:40:47;15.18;;;2.28;;
78404;SDS011;67689;43.592;1.418;2023-04-01T09:46:23;8.85;;;1.90;;
78404;SDS011;67689;43.592;1.418;2023-04-01T10:12:17;18.33;;;2.70;;
78404;SDS011;67689;43.592;1.418;2023-04-01T10:23:17;12.60;;;2.28;;
78404;SDS011;67689;43.592;1.418;2023-04-01T10:25:57;15.18;;;2.47;;
78404;SDS011;67689;43.592;1.418;2023-04-01T10:28:57;15.95;;;3.22;;
78404;SDS011;67689;43.592;1.418;2023-04-01T10:40:09;15.95;;;2.97;;
78404;SDS011;67689;43.592;1.418;2023-04-01T11:20:59;19.45;;;3.25;;
78404;SDS011;67689;43.592;1.418;2023-04-01T11:26:59;13.43;;;2.15;;
78404;SDS011;67689;43.592;1.418;2023-04-01T11:32:24;13.48;;;2.67;;
78404;SDS011;67689;43.592;1.418;2023-04-01T11:40:47;16.85;;;2.92;;
78404;SDS011;67689;43.592;1.418;2023-04-01T11:48:51;13.88;;;2.53;;
78404;SDS011;67689;43.592;1.418;2023-04-01T12:10:38;11.48;;;2.35;;
78404;SDS011;67689;43.592;1.418;2023-04-01T12:13:14;11.60;;;2.20;;
78404;SDS011;67689;43.592;1.418;2023-04-01T12:21:00;15.43;;;4.22;;
78404;SDS011;67689;43.592;1.418;2023-04-01T12:23:37;9.07;;;1.98;;
78404;SDS011;67689;43.592;1.418;2023-04-01T12:26:15;10.73;;;2.20;;
78404;SDS011;67689;43.592;1.418;2023-04-01T12:31:27;9.82;;;2.15;;
78404;SDS011;67689;43.592;1.418;2023-04-01T12:34:05;10.32;;;2.00;;
78404;SDS011;67689;43.592;1.418;2023-04-01T12:36:53;6.63;;;1.67;;
78404;SDS011;67689;43.592;1.418;2023-04-01T12:42:41;7.97;;;1.98;;
78404;SDS011;67689;43.592;1.418;2023-04-01T12:51:06;12.35;;;2.20;;
78404;SDS011;67689;43.592;1.418;2023-04-01T12:57:10;8.32;;;1.80;;
78404;SDS011;67689;43.592;1.418;2023-04-01T13:06:02;7.65;;;1.40;;
78404;SDS011;67689;43.592;1.418;2023-04-01T13:18:12;8.50;;;1.48;;
78404;SDS011;67689;43.592;1.418;2023-04-01T13:24:32;8.02;;;1.48;;
78404;SDS011;67689;43.592;1.418;2023-04-01T13:50:34;7.35;;;1.58;;
78404;SDS011;67689;43.592;1.418;2023-04-01T13:53:22;5.50;;;1.65;;
78404;SDS011;67689;43.592;1.418;2023-04-01T14:04:09;10.45;;;1.98;;
78404;SDS011;67689;43.592;1.418;2023-04-01T14:09:25;9.13;;;1.70;;
78404;SDS011;67689;43.592;1.418;2023-04-01T14:12:00;9.93;;;2.03;;
78404;SDS011;67689;43.592;1.418;2023-04-01T14:20:36;11.65;;;2.28;;
78404;SDS011;67689;43.592;1.418;2023-04-01T14:23:13;12.70;;;3.35;;
78404;SDS011;67689;43.592;1.418;2023-04-01T14:26:11;9.25;;;2.05;;
78404;SDS011;67689;43.592;1.418;2023-04-01T14:51:47;11.38;;;2.00;;
78404;SDS011;67689;43.592;1.418;2023-04-01T14:54:15;12.13;;;2.05;;
78404;SDS011;67689;43.592;1.418;2023-04-01T14:57:31;11.10;;;2.10;;
78404;SDS011;67689;43.592;1.418;2023-04-01T14:59:46;12.88;;;1.88;;
78404;SDS011;67689;43.592;1.418;2023-04-01T15:11:19;6.47;;;1.60;;
78404;SDS011;67689;43.592;1.418;2023-04-01T15:13:53;7.45;;;1.48;;
78404;SDS011;67689;43.592;1.418;2023-04-01T15:16:31;9.48;;;2.10;;
78404;SDS011;67689;43.592;1.418;2023-04-01T15:25:00;8.00;;;1.80;;
78404;SDS011;67689;43.592;1.418;2023-04-01T15:38:09;9.23;;;2.10;;
78404;SDS011;67689;43.592;1.418;2023-04-01T15:40:53;6.97;;;1.57;;
78404;SDS011;67689;43.592;1.418;2023-04-01T15:51:26;6.85;;;1.77;;
78404;SDS011;67689;43.592;1.418;2023-04-01T16:02:40;7.60;;;1.50;;
78404;SDS011;67689;43.592;1.418;2023-04-01T16:21:35;9.10;;;1.83;;
78404;SDS011;67689;43.592;1.418;2023-04-01T16:24:15;8.02;;;2.13;;
78404;SDS011;67689;43.592;1.418;2023-04-01T16:26:50;9.77;;;1.80;;
78404;SDS011;67689;43.592;1.418;2023-04-01T16:29:24;9.70;;;2.10;;
78404;SDS011;67689;43.592;1.418;2023-04-01T16:38:05;10.55;;;2.13;;
78404;SDS011;67689;43.592;1.418;2023-04-01T16:41:07;15.65;;;5.05;;
78404;SDS011;67689;43.592;1.418;2023-04-01T16:43:40;12.13;;;3.42;;
78404;SDS011;67689;43.592;1.418;2023-04-01T16:51:24;7.72;;;2.72;;
78404;SDS011;67689;43.592;1.418;2023-04-01T16:54:10;9.18;;;2.72;;
78404;SDS011;67689;43.592;1.418;2023-04-01T16:56:44;15.75;;;3.35;;
78404;SDS011;67689;43.592;1.418;2023-04-01T17:01:49;9.43;;;1.77;;
78404;SDS011;67689;43.592;1.418;2023-04-01T17:15:15;9.10;;;2.00;;
78404;SDS011;67689;43.592;1.418;2023-04-01T17:36:27;11.55;;;2.88;;
78404;SDS011;67689;43.592;1.418;2023-04-01T17:42:06;10.25;;;2.15;;
78404;SDS011;67689;43.592;1.418;2023-04-01T17:44:38;13.43;;;2.35;;
78404;SDS011;67689;43.592;1.418;2023-04-01T17:47:29;11.05;;;2.42;;
78404;SDS011;67689;43.592;1.418;2023-04-01T17:55:40;10.32;;;2.45;;
78404;SDS011;67689;43.592;1.418;2023-04-01T18:01:01;8.73;;;2.07;;
78404;SDS011;67689;43.592;1.418;2023-04-01T18:09:34;6.93;;;1.30;;
78404;SDS011;67689;43.592;1.418;2023-04-01T18:15:35;8.35;;;1.60;;
78404;SDS011;67689;43.592;1.418;2023-04-01T18:17:46;6.60;;;1.80;;
78404;SDS011;67689;43.592;1.418;2023-04-01T18:20:24;9.35;;;1.75;;
78404;SDS011;67689;43.592;1.418;2023-04-01T18:25:36;7.10;;;1.55;;
78404;SDS011;67689;43.592;1.418;2023-04-01T18:30:31;10.52;;;1.90;;
78404;SDS011;67689;43.592;1.418;2023-04-01T18:32:58;9.30;;;2.25;;
78404;SDS011;67689;43.592;1.418;2023-04-01T18:35:47;9.32;;;1.80;;
78404;SDS011;67689;43.592;1.418;2023-04-01T18:38:18;10.10;;;2.10;;
78404;SDS011;67689;43.592;1.418;2023-04-01T18:40:59;8.63;;;1.77;;
78404;SDS011;67689;43.592;1.418;2023-04-01T18:48:59;10.30;;;2.28;;
78404;SDS011;67689;43.592;1.418;2023-04-01T18:51:33;13.07;;;1.88;;
78404;SDS011;67689;43.592;1.418;2023-04-01T18:54:47;9.00;;;2.07;;
78404;SDS011;67689;43.592;1.418;2023-04-01T18:57:01;10.35;;;2.25;;
78404;SDS011;67689;43.592;1.418;2023-04-01T19:02:29;7.53;;;2.10;;
78404;SDS011;67689;43.592;1.418;2023-04-01T19:05:07;9.38;;;2.15;;
78404;SDS011;67689;43.592;1.418;2023-04-01T19:07:40;6.85;;;2.00;;
78404;SDS011;67689;43.592;1.418;2023-04-01T19:20:47;7.97;;;2.13;;
78404;SDS011;67689;43.592;1.418;2023-04-01T19:26:12;14.77;;;2.72;;
78404;SDS011;67689;43.592;1.418;2023-04-01T19:31:29;9.98;;;2.30;;
78404;SDS011;67689;43.592;1.418;2023-04-01T19:37:02;7.50;;;1.60;;
78404;SDS011;67689;43.592;1.418;2023-04-01T19:39:37;8.32;;;2.05;;
78404;SDS011;67689;43.592;1.418;2023-04-01T19:50:06;10.90;;;2.60;;
78404;SDS011;67689;43.592;1.418;2023-04-01T19:52:55;10.25;;;2.05;;
78404;SDS011;67689;43.592;1.418;2023-04-01T19:55:27;7.70;;;1.80;;
78404;SDS011;67689;43.592;1.418;2023-04-01T19:58:19;8.50;;;1.77;;
78404;SDS011;67689;43.592;1.418;2023-04-01T20:00:57;9.90;;;1.80;;
78404;SDS011;67689;43.592;1.418;2023-04-01T20:11:51;10.95;;;2.45;;
78404;SDS011;67689;43.592;1.418;2023-04-01T20:17:16;8.30;;;2.30;;
78404;SDS011;67689;43.592;1.418;2023-04-01T20:19:56;8.48;;;2.20;;
78404;SDS011;67689;43.592;1.418;2023-04-01T20:25:11;8.32;;;2.20;;
78404;SDS011;67689;43.592;1.418;2023-04-01T20:27:54;11.20;;;2.15;;
78404;SDS011;67689;43.592;1.418;2023-04-01T20:35:53;9.13;;;1.95;;
78404;SDS011;67689;43.592;1.418;2023-04-01T20:44:14;9.98;;;2.25;;
78404;SDS011;67689;43.592;1.418;2023-04-01T20:47:10;11.75;;;2.35;;
78404;SDS011;67689;43.592;1.418;2023-04-01T20:49:47;9.95;;;2.38;;
78404;SDS011;67689;43.592;1.418;2023-04-01T20:52:40;10.32;;;2.03;;
78404;SDS011;67689;43.592;1.418;2023-04-01T21:00:40;12.25;;;2.88;;
78404;SDS011;67689;43.592;1.418;2023-04-01T21:09:03;14.55;;;2.60;;
78404;SDS011;67689;43.592;1.418;2023-04-01T21:11:56;9.43;;;1.92;;
78404;SDS011;67689;43.592;1.418;2023-04-01T21:28:02;12.83;;;1.97;;
78404;SDS011;67689;43.592;1.418;2023-04-01T21:39:16;14.52;;;2.00;;
78404;SDS011;67689;43.592;1.418;2023-04-01T21:41:54;10.97;;;1.83;;
78404;SDS011;67689;43.592;1.418;2023-04-01T22:14:12;11.30;;;2.20;;
78404;SDS011;67689;43.592;1.418;2023-04-01T22:16:48;11.10;;;2.20;;
78404;SDS011;67689;43.592;1.418;2023-04-01T22:22:10;10.60;;;2.08;;
78404;SDS011;67689;43.592;1.418;2023-04-01T22:24:47;10.50;;;1.75;;
78404;SDS011;67689;43.592;1.418;2023-04-01T22:32:44;10.35;;;2.33;;
78404;SDS011;67689;43.592;1.418;2023-04-01T22:38:03;10.38;;;2.58;;
78404;SDS011;67689;43.592;1.418;2023-04-01T22:40:33;13.15;;;2.10;;
78404;SDS011;67689;43.592;1.418;2023-04-01T22:43:00;12.02;;;2.05;;
78404;SDS011;67689;43.592;1.418;2023-04-01T22:56:07;14.02;;;2.38;;
78404;SDS011;67689;43.592;1.418;2023-04-01T22:58:45;12.32;;;2.10;;
78404;SDS011;67689;43.592;1.418;2023-04-01T23:01:16;11.68;;;2.35;;
78404;SDS011;67689;43.592;1.418;2023-04-01T23:03:46;14.55;;;1.90;;
78404;SDS011;67689;43.592;1.418;2023-04-01T23:06:19;13.02;;;2.20;;
78404;SDS011;67689;43.592;1.418;2023-04-01T23:09:01;9.63;;;1.70;;
78404;SDS011;67689;43.592;1.418;2023-04-01T23:11:44;12.05;;;2.13;;
78404;SDS011;67689;43.592;1.418;2023-04-01T23:19:24;10.32;;;2.30;;
78404;SDS011;67689;43.592;1.418;2023-04-01T23:21:53;13.02;;;2.15;;
78404;SDS011;67689;43.592;1.418;2023-04-01T23:24:26;13.60;;;2.15;;
78404;SDS011;67689;43.592;1.418;2023-04-01T23:26:56;13.40;;;2.30;;
78404;SDS011;67689;43.592;1.418;2023-04-01T23:29:25;14.15;;;2.15;;
78404;SDS011;67689;43.592;1.418;2023-04-01T23:32:05;12.77;;;2.20;;
78404;SDS011;67689;43.592;1.418;2023-04-01T23:34:31;13.65;;;2.08;;
78404;SDS011;67689;43.592;1.418;2023-04-01T23:36:58;11.30;;;1.80;;
78404;SDS011;67689;43.592;1.418;2023-04-01T23:39:31;19.25;;;2.83;;
78404;SDS011;67689;43.592;1.418;2023-04-01T23:41:59;13.43;;;1.85;;
78404;SDS011;67689;43.592;1.418;2023-04-01T23:44:27;12.43;;;1.52;;
78404;SDS011;67689;43.592;1.418;2023-04-01T23:46:54;10.75;;;1.98;;
78404;SDS011;67689;43.592;1.418;2023-04-01T23:49:38;11.18;;;1.67;;
78404;SDS011;67689;43.592;1.418;2023-04-01T23:54:39;13.23;;;1.98;;
78404;SDS011;67689;43.592;1.418;2023-04-01T23:57:11;8.88;;;1.70;;
78404;SDS011;67689;43.592;1.418;2023-04-01T23:59:39;12.35;;;1.92;;
